• images/banner/banner1.jpg
  • images/banner/banner2.jpg

Team Member Login

Aviation Weather

[source: ADDS]
METAR
EGVN 220950Z 19008KT 9999 FEW024TCU SCT028 18/09 Q1007 TEMPO 6000 SHRA =
TAF
TAF EGVN 220722Z 2209/2309 16006KT 9999 SCT035 TEMPO 2210/2221 6000 SHRA SCT022 PROB30 TEMPO 2211/2219 4000 +SHRA BKN018CB TEMPO 2302/2306 4000 BR PROB30 2304/2306 1500 MIFG =